sensor_id;sensor_type;location;lat;lon;timestamp;pressure;altitude;pressure_sealevel;temperature;humidity
4745;BME280;2386;42.138;24.746;2022-07-25T00:01:57;99378.09;;;27.13;96.21
4745;BME280;2386;42.138;24.746;2022-07-25T00:04:22;99378.47;;;26.33;89.66
4745;BME280;2386;42.138;24.746;2022-07-25T00:06:48;99383.50;;;25.98;100.00
4745;BME280;2386;42.138;24.746;2022-07-25T00:09:13;99378.06;;;25.81;100.00
4745;BME280;2386;42.138;24.746;2022-07-25T00:11:39;99388.28;;;25.68;100.00
4745;BME280;2386;42.138;24.746;2022-07-25T00:14:05;99411.31;;;25.69;100.00
4745;BME280;2386;42.138;24.746;2022-07-25T00:16:30;99417.03;;;25.64;100.00
4745;BME280;2386;42.138;24.746;2022-07-25T00:18:56;99408.91;;;25.59;100.00
4745;BME280;2386;42.138;24.746;2022-07-25T00:21:21;99411.00;;;25.32;100.00
4745;BME280;2386;42.138;24.746;2022-07-25T00:23:46;99416.47;;;25.20;100.00
4745;BME280;2386;42.138;24.746;2022-07-25T00:26:12;99420.22;;;25.15;100.00
4745;BME280;2386;42.138;24.746;2022-07-25T00:28:38;99420.94;;;25.04;100.00
4745;BME280;2386;42.138;24.746;2022-07-25T00:31:04;99421.75;;;24.96;100.00
4745;BME280;2386;42.138;24.746;2022-07-25T00:33:29;99420.94;;;24.86;100.00
4745;BME280;2386;42.138;24.746;2022-07-25T00:35:55;99429.91;;;24.92;100.00
4745;BME280;2386;42.138;24.746;2022-07-25T00:38:20;99419.47;;;24.98;100.00
4745;BME280;2386;42.138;24.746;2022-07-25T00:40:45;99409.34;;;25.02;100.00
4745;BME280;2386;42.138;24.746;2022-07-25T00:43:11;99426.28;;;25.17;100.00
4745;BME280;2386;42.138;24.746;2022-07-25T00:45:36;99428.31;;;25.29;100.00
4745;BME280;2386;42.138;24.746;2022-07-25T00:48:02;99423.06;;;25.36;100.00
4745;BME280;2386;42.138;24.746;2022-07-25T00:50:28;99414.41;;;25.38;100.00
4745;BME280;2386;42.138;24.746;2022-07-25T00:52:54;99415.78;;;25.52;100.00
4745;BME280;2386;42.138;24.746;2022-07-25T00:55:20;99405.63;;;25.65;100.00
4745;BME280;2386;42.138;24.746;2022-07-25T00:57:45;99400.44;;;25.84;100.00
4745;BME280;2386;42.138;24.746;2022-07-25T01:00:13;99414.78;;;26.07;100.00
4745;BME280;2386;42.138;24.746;2022-07-25T01:02:40;99404.50;;;26.08;100.00
4745;BME280;2386;42.138;24.746;2022-07-25T01:05:07;99408.41;;;26.28;100.00
4745;BME280;2386;42.138;24.746;2022-07-25T01:07:33;99404.66;;;26.32;100.00
4745;BME280;2386;42.138;24.746;2022-07-25T01:10:00;99408.31;;;26.45;94.98
4745;BME280;2386;42.138;24.746;2022-07-25T01:12:26;99423.91;;;26.58;86.06
4745;BME280;2386;42.138;24.746;2022-07-25T01:14:51;99399.91;;;26.66;100.00
4745;BME280;2386;42.138;24.746;2022-07-25T01:17:17;99401.88;;;26.65;93.81
4745;BME280;2386;42.138;24.746;2022-07-25T01:19:42;99395.63;;;26.68;93.40
4745;BME280;2386;42.138;24.746;2022-07-25T01:22:08;99404.22;;;26.75;80.20
4745;BME280;2386;42.138;24.746;2022-07-25T01:24:34;99410.38;;;26.81;77.64
4745;BME280;2386;42.138;24.746;2022-07-25T01:27:01;99402.63;;;26.87;80.04
4745;BME280;2386;42.138;24.746;2022-07-25T01:29:27;99402.41;;;26.92;75.98
4745;BME280;2386;42.138;24.746;2022-07-25T01:31:52;99398.25;;;26.98;68.29
4745;BME280;2386;42.138;24.746;2022-07-25T01:34:18;99397.38;;;27.18;68.98
4745;BME280;2386;42.138;24.746;2022-07-25T01:36:44;99392.75;;;27.34;68.61
4745;BME280;2386;42.138;24.746;2022-07-25T01:39:09;99379.97;;;27.45;74.65
4745;BME280;2386;42.138;24.746;2022-07-25T01:41:35;99377.84;;;27.55;74.13
4745;BME280;2386;42.138;24.746;2022-07-25T01:44:00;99364.50;;;27.60;74.57
4745;BME280;2386;42.138;24.746;2022-07-25T01:46:25;99381.56;;;27.71;73.36
4745;BME280;2386;42.138;24.746;2022-07-25T01:48:51;99378.78;;;27.71;68.21
4745;BME280;2386;42.138;24.746;2022-07-25T01:51:16;99381.09;;;27.81;71.28
4745;BME280;2386;42.138;24.746;2022-07-25T01:53:42;99377.16;;;27.82;66.79
4745;BME280;2386;42.138;24.746;2022-07-25T01:56:07;99344.28;;;27.75;65.38
4745;BME280;2386;42.138;24.746;2022-07-25T01:58:33;99355.06;;;27.89;67.04
4745;BME280;2386;42.138;24.746;2022-07-25T02:00:58;99339.94;;;27.90;62.66
4745;BME280;2386;42.138;24.746;2022-07-25T02:03:24;99335.56;;;27.77;63.28
4745;BME280;2386;42.138;24.746;2022-07-25T02:06:04;99322.91;;;27.79;63.99
4745;BME280;2386;42.138;24.746;2022-07-25T02:08:54;99324.03;;;27.91;63.10
4745;BME280;2386;42.138;24.746;2022-07-25T02:11:20;99320.09;;;27.92;64.15
4745;BME280;2386;42.138;24.746;2022-07-25T02:13:45;99301.13;;;27.97;66.87
4745;BME280;2386;42.138;24.746;2022-07-25T02:16:11;99301.88;;;27.82;64.01
4745;BME280;2386;42.138;24.746;2022-07-25T02:18:36;99307.56;;;27.86;63.00
4745;BME280;2386;42.138;24.746;2022-07-25T02:21:02;99295.84;;;27.80;64.07
4745;BME280;2386;42.138;24.746;2022-07-25T02:23:32;99300.00;;;27.86;63.84
4745;BME280;2386;42.138;24.746;2022-07-25T02:25:57;99287.13;;;27.81;64.67
4745;BME280;2386;42.138;24.746;2022-07-25T02:28:23;99281.44;;;27.78;65.44
4745;BME280;2386;42.138;24.746;2022-07-25T02:30:48;99290.56;;;27.91;65.53
4745;BME280;2386;42.138;24.746;2022-07-25T02:33:13;99289.88;;;27.94;66.86
4745;BME280;2386;42.138;24.746;2022-07-25T02:35:39;99290.63;;;28.06;69.82
4745;BME280;2386;42.138;24.746;2022-07-25T02:38:04;99267.84;;;28.04;68.43
4745;BME280;2386;42.138;24.746;2022-07-25T02:40:30;99276.44;;;28.11;68.29
4745;BME280;2386;42.138;24.746;2022-07-25T02:42:55;99286.63;;;28.20;66.17
4745;BME280;2386;42.138;24.746;2022-07-25T02:45:21;99302.81;;;28.14;63.07
4745;BME280;2386;42.138;24.746;2022-07-25T02:47:46;99294.13;;;28.03;60.92
4745;BME280;2386;42.138;24.746;2022-07-25T02:50:11;99288.13;;;27.89;60.99
4745;BME280;2386;42.138;24.746;2022-07-25T02:52:37;99295.22;;;27.87;62.48
4745;BME280;2386;42.138;24.746;2022-07-25T02:55:03;99303.00;;;27.93;62.40
4745;BME280;2386;42.138;24.746;2022-07-25T02:57:28;99306.59;;;27.94;63.91
4745;BME280;2386;42.138;24.746;2022-07-25T02:59:54;99295.41;;;27.66;65.46
4745;BME280;2386;42.138;24.746;2022-07-25T03:02:19;99298.66;;;27.68;65.47
4745;BME280;2386;42.138;24.746;2022-07-25T03:04:45;99284.97;;;27.63;64.61
4745;BME280;2386;42.138;24.746;2022-07-25T03:07:10;99296.91;;;27.63;65.25
4745;BME280;2386;42.138;24.746;2022-07-25T03:09:35;99305.59;;;27.74;63.40
4745;BME280;2386;42.138;24.746;2022-07-25T03:12:01;99318.81;;;27.89;63.60
4745;BME280;2386;42.138;24.746;2022-07-25T03:14:27;99324.63;;;27.84;62.57
4745;BME280;2386;42.138;24.746;2022-07-25T03:16:52;99323.94;;;27.87;62.68
4745;BME280;2386;42.138;24.746;2022-07-25T03:19:18;99319.28;;;27.91;63.46
4745;BME280;2386;42.138;24.746;2022-07-25T03:21:43;99324.63;;;27.84;62.17
4745;BME280;2386;42.138;24.746;2022-07-25T03:24:10;99328.59;;;27.83;61.84
4745;BME280;2386;42.138;24.746;2022-07-25T03:26:35;99318.84;;;27.77;62.57
4745;BME280;2386;42.138;24.746;2022-07-25T03:29:01;99336.28;;;27.74;62.05
4745;BME280;2386;42.138;24.746;2022-07-25T03:31:26;99330.69;;;27.74;61.61
4745;BME280;2386;42.138;24.746;2022-07-25T03:33:52;99328.59;;;27.83;59.37
4745;BME280;2386;42.138;24.746;2022-07-25T03:36:18;99336.84;;;27.79;60.17
4745;BME280;2386;42.138;24.746;2022-07-25T03:38:44;99342.56;;;27.71;59.85
4745;BME280;2386;42.138;24.746;2022-07-25T03:41:09;99348.47;;;27.57;60.18
4745;BME280;2386;42.138;24.746;2022-07-25T03:43:34;99351.75;;;27.59;61.00
4745;BME280;2386;42.138;24.746;2022-07-25T03:46:00;99346.72;;;27.53;61.40
4745;BME280;2386;42.138;24.746;2022-07-25T03:48:25;99345.31;;;27.59;61.45
4745;BME280;2386;42.138;24.746;2022-07-25T03:50:51;99343.75;;;27.45;61.64
4745;BME280;2386;42.138;24.746;2022-07-25T03:53:16;99347.56;;;27.41;62.58
4745;BME280;2386;42.138;24.746;2022-07-25T03:55:41;99343.28;;;27.31;63.24
4745;BME280;2386;42.138;24.746;2022-07-25T03:58:07;99358.84;;;27.32;63.14
4745;BME280;2386;42.138;24.746;2022-07-25T04:00:32;99347.59;;;27.16;63.99
4745;BME280;2386;42.138;24.746;2022-07-25T04:02:58;99341.91;;;27.25;62.78
4745;BME280;2386;42.138;24.746;2022-07-25T04:05:23;99344.91;;;27.20;62.70
4745;BME280;2386;42.138;24.746;2022-07-25T04:07:48;99356.28;;;27.27;62.38
4745;BME280;2386;42.138;24.746;2022-07-25T04:10:14;99356.97;;;27.36;61.88
4745;BME280;2386;42.138;24.746;2022-07-25T04:12:39;99361.50;;;27.41;62.50
4745;BME280;2386;42.138;24.746;2022-07-25T04:15:05;99347.69;;;27.44;60.95
4745;BME280;2386;42.138;24.746;2022-07-25T04:17:31;99358.34;;;27.55;60.54
4745;BME280;2386;42.138;24.746;2022-07-25T04:19:56;99354.63;;;27.75;59.68
4745;BME280;2386;42.138;24.746;2022-07-25T04:22:22;99349.13;;;27.91;58.63
4745;BME280;2386;42.138;24.746;2022-07-25T04:24:47;99358.16;;;28.00;57.98
4745;BME280;2386;42.138;24.746;2022-07-25T04:27:13;99353.25;;;28.09;57.91
4745;BME280;2386;42.138;24.746;2022-07-25T04:29:40;99355.69;;;28.10;57.75
4745;BME280;2386;42.138;24.746;2022-07-25T04:32:05;99356.47;;;28.23;57.06
4745;BME280;2386;42.138;24.746;2022-07-25T04:34:31;99356.47;;;28.23;57.06
4745;BME280;2386;42.138;24.746;2022-07-25T04:36:56;99361.19;;;28.35;57.65
4745;BME280;2386;42.138;24.746;2022-07-25T04:39:22;99361.03;;;28.43;57.49
4745;BME280;2386;42.138;24.746;2022-07-25T04:41:47;99363.91;;;28.47;57.75
4745;BME280;2386;42.138;24.746;2022-07-25T04:44:13;99360.88;;;28.52;58.05
4745;BME280;2386;42.138;24.746;2022-07-25T04:46:39;99362.22;;;28.58;59.07
4745;BME280;2386;42.138;24.746;2022-07-25T04:49:04;99366.66;;;28.59;57.55
4745;BME280;2386;42.138;24.746;2022-07-25T04:51:30;99376.91;;;28.55;57.50
4745;BME280;2386;42.138;24.746;2022-07-25T04:53:55;99366.25;;;28.45;57.64
4745;BME280;2386;42.138;24.746;2022-07-25T04:56:21;99357.63;;;28.50;58.45
4745;BME280;2386;42.138;24.746;2022-07-25T04:58:46;99368.59;;;28.43;58.56
4745;BME280;2386;42.138;24.746;2022-07-25T05:01:12;99373.56;;;28.50;58.57
4745;BME280;2386;42.138;24.746;2022-07-25T05:03:37;99366.97;;;28.42;59.82
4745;BME280;2386;42.138;24.746;2022-07-25T05:06:03;99367.25;;;28.53;59.01
4745;BME280;2386;42.138;24.746;2022-07-25T05:08:28;99355.38;;;28.56;58.71
4745;BME280;2386;42.138;24.746;2022-07-25T05:10:54;99364.38;;;28.49;58.59
4745;BME280;2386;42.138;24.746;2022-07-25T05:13:20;99370.72;;;28.62;58.68
4745;BME280;2386;42.138;24.746;2022-07-25T05:15:45;99367.75;;;28.70;57.87
4745;BME280;2386;42.138;24.746;2022-07-25T05:18:10;99366.75;;;28.63;59.28
4745;BME280;2386;42.138;24.746;2022-07-25T05:20:36;99362.72;;;28.76;59.83
4745;BME280;2386;42.138;24.746;2022-07-25T05:23:01;99369.16;;;28.92;59.56
4745;BME280;2386;42.138;24.746;2022-07-25T05:25:27;99361.16;;;28.91;58.23
4745;BME280;2386;42.138;24.746;2022-07-25T05:27:53;99377.44;;;29.04;59.20
4745;BME280;2386;42.138;24.746;2022-07-25T05:30:20;99370.22;;;29.03;59.02
4745;BME280;2386;42.138;24.746;2022-07-25T05:32:46;99378.16;;;29.17;60.16
4745;BME280;2386;42.138;24.746;2022-07-25T05:35:12;99369.31;;;29.15;57.89
4745;BME280;2386;42.138;24.746;2022-07-25T05:37:37;99378.78;;;29.26;58.18
4745;BME280;2386;42.138;24.746;2022-07-25T05:40:04;99375.81;;;29.35;58.94
4745;BME280;2386;42.138;24.746;2022-07-25T05:42:30;99377.53;;;29.39;58.68
4745;BME280;2386;42.138;24.746;2022-07-25T05:44:56;99384.56;;;29.49;56.86
4745;BME280;2386;42.138;24.746;2022-07-25T05:47:23;99387.53;;;29.56;58.90
4745;BME280;2386;42.138;24.746;2022-07-25T05:49:49;99383.66;;;29.61;56.79
4745;BME280;2386;42.138;24.746;2022-07-25T05:52:14;99379.97;;;29.57;56.67
4745;BME280;2386;42.138;24.746;2022-07-25T05:54:40;99384.25;;;29.70;57.78
4745;BME280;2386;42.138;24.746;2022-07-25T05:57:05;99379.53;;;29.74;59.21
4745;BME280;2386;42.138;24.746;2022-07-25T05:59:31;99376.09;;;29.81;58.37
4745;BME280;2386;42.138;24.746;2022-07-25T06:01:56;99376.25;;;29.88;58.53
4745;BME280;2386;42.138;24.746;2022-07-25T06:04:22;99378.69;;;29.89;58.46
4745;BME280;2386;42.138;24.746;2022-07-25T06:06:47;99377.50;;;29.90;57.08
4745;BME280;2386;42.138;24.746;2022-07-25T06:09:20;99379.22;;;29.95;57.75
4745;BME280;2386;42.138;24.746;2022-07-25T06:11:47;99373.44;;;30.03;57.30
4745;BME280;2386;42.138;24.746;2022-07-25T06:14:14;99369.38;;;30.01;56.81
4745;BME280;2386;42.138;24.746;2022-07-25T06:16:39;99370.78;;;30.11;56.80
4745;BME280;2386;42.138;24.746;2022-07-25T06:19:10;99373.53;;;30.26;56.33
4745;BME280;2386;42.138;24.746;2022-07-25T06:26:46;99380.66;;;30.43;57.89
4745;BME280;2386;42.138;24.746;2022-07-25T06:29:11;99382.75;;;30.50;55.56
4745;BME280;2386;42.138;24.746;2022-07-25T06:31:36;99367.22;;;30.52;55.31
4745;BME280;2386;42.138;24.746;2022-07-25T06:34:02;99371.88;;;30.64;56.24
4745;BME280;2386;42.138;24.746;2022-07-25T06:36:27;99374.59;;;30.60;55.13
4745;BME280;2386;42.138;24.746;2022-07-25T06:38:53;99375.34;;;30.57;53.73
4745;BME280;2386;42.138;24.746;2022-07-25T06:41:18;99366.72;;;30.66;56.58
4745;BME280;2386;42.138;24.746;2022-07-25T06:43:46;99366.84;;;30.73;55.64
4745;BME280;2386;42.138;24.746;2022-07-25T06:46:12;99357.78;;;30.80;56.56
4745;BME280;2386;42.138;24.746;2022-07-25T06:48:38;99361.50;;;30.87;54.50
4745;BME280;2386;42.138;24.746;2022-07-25T06:51:04;99360.38;;;30.92;54.20
4745;BME280;2386;42.138;24.746;2022-07-25T06:53:30;99360.84;;;30.94;52.13
4745;BME280;2386;42.138;24.746;2022-07-25T06:55:55;99362.31;;;30.88;51.80
4745;BME280;2386;42.138;24.746;2022-07-25T06:58:20;99364.38;;;30.91;53.47
4745;BME280;2386;42.138;24.746;2022-07-25T07:00:46;99359.38;;;30.81;51.39
4745;BME280;2386;42.138;24.746;2022-07-25T07:03:11;99359.38;;;30.81;51.61
4745;BME280;2386;42.138;24.746;2022-07-25T07:05:38;99355.84;;;30.84;54.01
4745;BME280;2386;42.138;24.746;2022-07-25T07:08:04;99363.06;;;30.85;51.85
4745;BME280;2386;42.138;24.746;2022-07-25T07:10:29;99362.31;;;30.88;53.45
4745;BME280;2386;42.138;24.746;2022-07-25T07:13:10;99362.75;;;30.90;53.06
4745;BME280;2386;42.138;24.746;2022-07-25T07:15:36;99358.03;;;30.94;51.82
4745;BME280;2386;42.138;24.746;2022-07-25T07:18:03;99361.94;;;30.89;50.81
4745;BME280;2386;42.138;24.746;2022-07-25T07:20:28;99368.78;;;30.92;51.16
4745;BME280;2386;42.138;24.746;2022-07-25T07:22:54;99362.63;;;30.83;49.57
4745;BME280;2386;42.138;24.746;2022-07-25T07:25:19;99360.56;;;30.80;50.06
4745;BME280;2386;42.138;24.746;2022-07-25T07:27:46;99355.72;;;30.77;50.78
4745;BME280;2386;42.138;24.746;2022-07-25T07:30:12;99362.88;;;30.74;51.46
4745;BME280;2386;42.138;24.746;2022-07-25T07:32:42;99350.19;;;30.80;52.53
4745;BME280;2386;42.138;24.746;2022-07-25T07:35:08;99345.13;;;30.66;50.11
4745;BME280;2386;42.138;24.746;2022-07-25T07:37:33;99355.78;;;30.80;51.49
4745;BME280;2386;42.138;24.746;2022-07-25T07:39:59;99361.78;;;30.59;50.98
4745;BME280;2386;42.138;24.746;2022-07-25T07:42:24;99362.38;;;30.68;52.79
4745;BME280;2386;42.138;24.746;2022-07-25T07:44:49;99362.88;;;30.55;51.42
4745;BME280;2386;42.138;24.746;2022-07-25T07:47:15;99363.25;;;30.53;51.91
4745;BME280;2386;42.138;24.746;2022-07-25T07:49:41;99353.59;;;30.51;51.80
4745;BME280;2386;42.138;24.746;2022-07-25T07:52:06;99357.56;;;30.50;50.71
4745;BME280;2386;42.138;24.746;2022-07-25T07:54:32;99350.41;;;30.52;50.91
4745;BME280;2386;42.138;24.746;2022-07-25T07:57:16;99351.78;;;30.58;50.24
4745;BME280;2386;42.138;24.746;2022-07-25T07:59:42;99354.41;;;30.51;48.22
4745;BME280;2386;42.138;24.746;2022-07-25T08:02:07;99348.00;;;30.51;48.21
4745;BME280;2386;42.138;24.746;2022-07-25T08:04:33;99341.13;;;30.67;48.40
4745;BME280;2386;42.138;24.746;2022-07-25T08:06:58;99349.38;;;30.80;47.54
4745;BME280;2386;42.138;24.746;2022-07-25T08:09:24;99345.19;;;30.93;47.80
4745;BME280;2386;42.138;24.746;2022-07-25T08:11:52;99345.75;;;31.02;46.80
4745;BME280;2386;42.138;24.746;2022-07-25T08:14:18;99354.00;;;31.14;47.13
4745;BME280;2386;42.138;24.746;2022-07-25T08:16:43;99343.69;;;31.22;47.62
4745;BME280;2386;42.138;24.746;2022-07-25T08:19:09;99350.78;;;31.38;45.96
4745;BME280;2386;42.138;24.746;2022-07-25T08:21:34;99345.72;;;31.48;46.24
4745;BME280;2386;42.138;24.746;2022-07-25T08:24:00;99329.22;;;31.43;45.30
4745;BME280;2386;42.138;24.746;2022-07-25T08:26:25;99339.19;;;31.40;44.29
4745;BME280;2386;42.138;24.746;2022-07-25T08:28:52;99345.97;;;31.39;45.48
4745;BME280;2386;42.138;24.746;2022-07-25T08:31:18;99343.75;;;31.52;45.55
4745;BME280;2386;42.138;24.746;2022-07-25T08:33:43;99337.06;;;31.60;45.20
4745;BME280;2386;42.138;24.746;2022-07-25T08:36:09;99346.78;;;31.66;44.11
4745;BME280;2386;42.138;24.746;2022-07-25T08:38:35;99348.91;;;31.73;44.62
4745;BME280;2386;42.138;24.746;2022-07-25T08:41:01;99341.16;;;31.66;45.20
4745;BME280;2386;42.138;24.746;2022-07-25T08:43:28;99339.69;;;31.72;44.12
4745;BME280;2386;42.138;24.746;2022-07-25T08:45:59;99352.09;;;31.71;43.04
4745;BME280;2386;42.138;24.746;2022-07-25T08:51:46;99353.09;;;31.86;43.55
4745;BME280;2386;42.138;24.746;2022-07-25T08:54:12;99357.66;;;31.97;44.75
4745;BME280;2386;42.138;24.746;2022-07-25T08:56:39;99343.47;;;31.83;42.74
4745;BME280;2386;42.138;24.746;2022-07-25T08:59:04;99352.81;;;31.94;42.59
4745;BME280;2386;42.138;24.746;2022-07-25T09:01:30;99362.66;;;32.11;43.10
4745;BME280;2386;42.138;24.746;2022-07-25T09:04:02;99342.47;;;32.02;39.99
4745;BME280;2386;42.138;24.746;2022-07-25T09:06:27;99339.66;;;32.02;40.72
4745;BME280;2386;42.138;24.746;2022-07-25T09:08:57;99347.41;;;32.12;40.35
4745;BME280;2386;42.138;24.746;2022-07-25T09:11:33;99339.47;;;32.18;40.59
4745;BME280;2386;42.138;24.746;2022-07-25T09:14:04;99328.25;;;32.18;40.88
4745;BME280;2386;42.138;24.746;2022-07-25T09:16:33;99334.41;;;32.27;40.60
4745;BME280;2386;42.138;24.746;2022-07-25T09:19:21;99338.88;;;32.31;39.93
4745;BME280;2386;42.138;24.746;2022-07-25T09:22:05;99327.34;;;32.40;40.67
4745;BME280;2386;42.138;24.746;2022-07-25T09:24:31;99327.41;;;32.47;40.00
4745;BME280;2386;42.138;24.746;2022-07-25T09:26:59;99334.38;;;32.60;41.14
4745;BME280;2386;42.138;24.746;2022-07-25T09:32:58;99328.72;;;32.57;40.57
4745;BME280;2386;42.138;24.746;2022-07-25T09:35:33;99310.63;;;32.54;40.34
4745;BME280;2386;42.138;24.746;2022-07-25T09:38:12;99332.59;;;32.82;40.37
4745;BME280;2386;42.138;24.746;2022-07-25T09:40:38;99330.88;;;32.74;38.82
4745;BME280;2386;42.138;24.746;2022-07-25T09:43:04;99320.97;;;32.84;38.60
4745;BME280;2386;42.138;24.746;2022-07-25T09:45:30;99317.97;;;32.70;38.61
4745;BME280;2386;42.138;24.746;2022-07-25T09:48:01;99313.69;;;32.79;39.69
4745;BME280;2386;42.138;24.746;2022-07-25T09:50:28;99321.09;;;32.98;39.36
4745;BME280;2386;42.138;24.746;2022-07-25T09:52:57;99325.53;;;33.03;38.25
4745;BME280;2386;42.138;24.746;2022-07-25T09:55:23;99322.44;;;33.15;37.70
4745;BME280;2386;42.138;24.746;2022-07-25T09:57:49;99319.69;;;33.22;38.44
4745;BME280;2386;42.138;24.746;2022-07-25T10:00:22;99320.50;;;33.22;38.42
4745;BME280;2386;42.138;24.746;2022-07-25T10:08:36;99318.19;;;33.32;38.46
4745;BME280;2386;42.138;24.746;2022-07-25T10:11:02;99296.91;;;33.34;38.01
4745;BME280;2386;42.138;24.746;2022-07-25T10:13:32;99308.53;;;33.33;38.42
4745;BME280;2386;42.138;24.746;2022-07-25T10:16:17;99302.09;;;33.28;37.51
4745;BME280;2386;42.138;24.746;2022-07-25T10:18:53;99310.59;;;33.39;37.19
4745;BME280;2386;42.138;24.746;2022-07-25T10:21:19;99298.53;;;33.35;37.39
4745;BME280;2386;42.138;24.746;2022-07-25T10:23:56;99294.09;;;33.34;38.30
4745;BME280;2386;42.138;24.746;2022-07-25T10:26:22;99286.06;;;33.36;38.19
4745;BME280;2386;42.138;24.746;2022-07-25T10:28:50;99288.91;;;33.40;37.40
4745;BME280;2386;42.138;24.746;2022-07-25T10:33:56;99278.50;;;33.51;37.11
4745;BME280;2386;42.138;24.746;2022-07-25T10:36:22;99282.94;;;33.52;37.73
4745;BME280;2386;42.138;24.746;2022-07-25T10:38:55;99273.69;;;33.55;37.87
4745;BME280;2386;42.138;24.746;2022-07-25T10:41:23;99282.97;;;33.62;37.92
4745;BME280;2386;42.138;24.746;2022-07-25T10:43:50;99274.16;;;33.68;36.59
4745;BME280;2386;42.138;24.746;2022-07-25T10:46:19;99263.72;;;33.68;37.06
4745;BME280;2386;42.138;24.746;2022-07-25T10:49:03;99275.38;;;33.67;37.33
4745;BME280;2386;42.138;24.746;2022-07-25T10:51:35;99263.72;;;33.68;37.84
4745;BME280;2386;42.138;24.746;2022-07-25T10:54:14;99268.94;;;33.66;36.92
4745;BME280;2386;42.138;24.746;2022-07-25T10:56:51;99255.28;;;33.68;37.42
4745;BME280;2386;42.138;24.746;2022-07-25T10:59:34;99258.13;;;33.75;37.60
4745;BME280;2386;42.138;24.746;2022-07-25T11:02:01;99257.00;;;33.87;36.40
4745;BME280;2386;42.138;24.746;2022-07-25T11:04:26;99254.25;;;34.01;37.57
4745;BME280;2386;42.138;24.746;2022-07-25T11:06:52;99250.25;;;34.09;37.77
4745;BME280;2386;42.138;24.746;2022-07-25T11:09:20;99248.63;;;34.01;36.17
4745;BME280;2386;42.138;24.746;2022-07-25T11:11:48;99245.44;;;34.17;37.31
4745;BME280;2386;42.138;24.746;2022-07-25T11:14:21;99248.72;;;34.37;36.27
4745;BME280;2386;42.138;24.746;2022-07-25T11:16:50;99244.69;;;34.45;36.24
4745;BME280;2386;42.138;24.746;2022-07-25T11:19:25;99237.84;;;34.49;36.92
4745;BME280;2386;42.138;24.746;2022-07-25T11:21:57;99227.00;;;34.62;37.21
4745;BME280;2386;42.138;24.746;2022-07-25T11:24:40;99225.41;;;34.65;35.93
4745;BME280;2386;42.138;24.746;2022-07-25T11:27:07;99231.03;;;34.75;36.24
4745;BME280;2386;42.138;24.746;2022-07-25T11:29:34;99225.41;;;34.82;35.62
4745;BME280;2386;42.138;24.746;2022-07-25T11:32:06;99218.97;;;34.89;35.80
4745;BME280;2386;42.138;24.746;2022-07-25T11:34:34;99214.94;;;34.83;35.96
4745;BME280;2386;42.138;24.746;2022-07-25T11:37:02;99218.19;;;34.85;35.10
4745;BME280;2386;42.138;24.746;2022-07-25T11:39:30;99203.69;;;34.86;35.71
4745;BME280;2386;42.138;24.746;2022-07-25T11:42:07;99210.47;;;35.03;35.32
4745;BME280;2386;42.138;24.746;2022-07-25T11:47:32;99214.09;;;35.11;34.76
4745;BME280;2386;42.138;24.746;2022-07-25T11:49:59;99206.84;;;35.06;34.95
4745;BME280;2386;42.138;24.746;2022-07-25T11:55:04;99193.94;;;35.30;35.31
4745;BME280;2386;42.138;24.746;2022-07-25T11:57:40;99197.94;;;35.40;34.40
4745;BME280;2386;42.138;24.746;2022-07-25T12:00:14;99198.56;;;35.72;34.84
4745;BME280;2386;42.138;24.746;2022-07-25T12:02:41;99193.66;;;35.94;35.11
4745;BME280;2386;42.138;24.746;2022-07-25T12:05:09;99195.56;;;36.67;32.12
4745;BME280;2386;42.138;24.746;2022-07-25T12:07:47;99203.38;;;38.33;29.62
4745;BME280;2386;42.138;24.746;2022-07-25T12:10:16;99200.06;;;39.51;27.68
4745;BME280;2386;42.138;24.746;2022-07-25T12:21:51;99202.22;;;46.34;20.80
4745;BME280;2386;42.138;24.746;2022-07-25T12:24:16;99201.53;;;47.20;19.66
4745;BME280;2386;42.138;24.746;2022-07-25T12:26:42;99199.53;;;47.64;18.70
4745;BME280;2386;42.138;24.746;2022-07-25T12:29:07;99208.88;;;48.03;18.98
4745;BME280;2386;42.138;24.746;2022-07-25T12:31:33;99202.31;;;48.67;18.42
4745;BME280;2386;42.138;24.746;2022-07-25T12:33:58;99191.44;;;48.42;18.90
4745;BME280;2386;42.138;24.746;2022-07-25T12:36:23;99193.31;;;48.80;18.65
4745;BME280;2386;42.138;24.746;2022-07-25T12:38:49;99196.56;;;47.88;18.48
4745;BME280;2386;42.138;24.746;2022-07-25T12:41:14;99180.03;;;46.01;19.87
4745;BME280;2386;42.138;24.746;2022-07-25T12:43:40;99182.66;;;44.40;21.21
4745;BME280;2386;42.138;24.746;2022-07-25T12:46:05;99179.13;;;43.09;22.65
4745;BME280;2386;42.138;24.746;2022-07-25T12:48:31;99175.47;;;42.61;23.53
4745;BME280;2386;42.138;24.746;2022-07-25T12:50:57;99165.19;;;42.76;24.00
4745;BME280;2386;42.138;24.746;2022-07-25T12:53:23;99181.56;;;43.32;23.44
4745;BME280;2386;42.138;24.746;2022-07-25T12:55:49;99159.84;;;43.35;24.00
4745;BME280;2386;42.138;24.746;2022-07-25T12:58:15;99164.72;;;42.90;24.12
4745;BME280;2386;42.138;24.746;2022-07-25T13:00:42;99171.19;;;42.44;24.10
4745;BME280;2386;42.138;24.746;2022-07-25T13:03:12;99157.28;;;42.20;25.13
4745;BME280;2386;42.138;24.746;2022-07-25T13:05:38;99170.50;;;41.47;24.89
4745;BME280;2386;42.138;24.746;2022-07-25T13:08:04;99172.34;;;41.25;25.13
4745;BME280;2386;42.138;24.746;2022-07-25T13:10:30;99160.59;;;42.06;24.85
4745;BME280;2386;42.138;24.746;2022-07-25T13:12:55;99157.28;;;42.80;24.35
4745;BME280;2386;42.138;24.746;2022-07-25T13:15:21;99158.72;;;43.76;23.45
4745;BME280;2386;42.138;24.746;2022-07-25T13:17:48;99155.97;;;45.20;23.62
4745;BME280;2386;42.138;24.746;2022-07-25T13:20:13;99174.09;;;46.47;20.88
4745;BME280;2386;42.138;24.746;2022-07-25T13:22:43;99170.00;;;47.10;20.66
4745;BME280;2386;42.138;24.746;2022-07-25T13:25:08;99163.34;;;48.17;20.11
4745;BME280;2386;42.138;24.746;2022-07-25T13:48:56;99158.19;;;49.69;18.10
4745;BME280;2386;42.138;24.746;2022-07-25T13:51:21;99154.81;;;50.02;17.82
4745;BME280;2386;42.138;24.746;2022-07-25T13:53:47;99160.66;;;50.13;17.68
4745;BME280;2386;42.138;24.746;2022-07-25T13:56:14;99153.22;;;50.32;17.48
4745;BME280;2386;42.138;24.746;2022-07-25T13:58:41;99153.66;;;50.68;17.45
4745;BME280;2386;42.138;24.746;2022-07-25T14:01:07;99150.59;;;50.82;16.97
4745;BME280;2386;42.138;24.746;2022-07-25T14:06:55;99142.75;;;50.40;17.38
4745;BME280;2386;42.138;24.746;2022-07-25T14:09:21;99145.69;;;51.05;17.29